Flight Track Log - Related Links

Times and Time Zones

All times are in EDT time to prevent confusion due to time zone crossing. See the EJM826 flight status page for this flight to view local times or setup timezone preferences in your user account.

Time Position Orientation Groundspeed Altitude Reporting Facility
EDT Latitude Longitude Course Direction KTS MPH feet Rate Location/Type
Sun 01:43:00 PM 39.0959 -119.2515 108° East  Level Estimated
Sun 01:44:00 PM 39.0579 -119.1041 108° East  Level Estimated
Sun 01:45:00 PM 39.0197 -118.9568 108° East  Level Estimated
Sun 01:46:00 PM 38.9814 -118.8097 109° East  Level Estimated
Sun 01:47:00 PM 38.9428 -118.6627 109° East  Level Estimated
Sun 01:48:00 PM 38.9041 -118.5159 109° East  Level Estimated
Sun 01:49:00 PM 38.8652 -118.3692 109° East  Level Estimated
Sun 01:50:00 PM 38.8260 -118.2227 109° East  Level Estimated
Sun 01:51:00 PM 38.7868 -118.0764 109° East  Level Estimated
Sun 01:52:00 PM 38.7473 -117.9303 109° East  Level Estimated
Sun 01:53:00 PM 38.7076 -117.7842 109° East  Level Estimated
Sun 01:54:00 PM 38.6678 -117.6384 109° East  Level Estimated
Sun 01:55:00 PM 38.6278 -117.4927 109° East  Level Estimated
Sun 01:56:00 PM 38.5876 -117.3472 109° East  Level Estimated
Sun 01:57:00 PM 38.5472 -117.2018 110° East  Level Estimated
Sun 01:58:00 PM 38.5066 -117.0566 110° East  Level Estimated
Sun 01:59:00 PM 38.4659 -116.9116 110° East  Level Estimated
Sun 02:00:00 PM 38.4250 -116.7668 110° East  Level Estimated
Sun 02:01:00 PM 38.3839 -116.6221 110° East  Level Estimated
Sun 02:02:00 PM 38.3426 -116.4775 110° East  Level Estimated
Sun 02:03:00 PM 38.3012 -116.3332 110° East  Level Estimated
Sun 02:04:00 PM 38.2595 -116.1890 110° East  Level Estimated
Sun 02:05:00 PM 38.2177 -116.0449 110° East  Level Estimated
Sun 02:06:00 PM 38.1757 -115.9010 110° East  Level Estimated
Sun 02:07:00 PM 38.1336 -115.7573 110° East  Level Estimated
Sun 02:08:00 PM 38.0913 -115.6138 111° Southeast  Level Estimated
Sun 02:08:02 PM 39.0317 -115.6450 111° Southeast 485 558 41,000  Level Salt Lake Center
Sun 02:09:00 PM 38.0488 -115.4704 111° Southeast  Level Estimated
Sun 02:09:04 PM 38.9889 -115.4794 108° East 486 559 41,000  Level Salt Lake Center
Sun 02:10:00 PM 38.0061 -115.3272 111° Southeast  Level Estimated
Sun 02:10:06 PM 38.9392 -115.2861 108° East 487 560 41,000  Level Salt Lake Center
Sun 02:11:00 PM 37.9632 -115.1842 111° Southeast  Level Estimated
Sun 02:11:08 PM 38.8967 -115.1217 108° East 486 559 41,000  Level Salt Lake Center
Sun 02:12:00 PM 37.9202 -115.0413 111° Southeast  Level Estimated
Sun 02:12:10 PM 38.8539 -114.9553 108° East 490 564 41,000  Level Salt Lake Center
Sun 02:13:00 PM 37.8908 -114.9439 111° Southeast  Level Estimated
Sun 02:13:12 PM 38.8111 -114.7917 109° East 486 559 41,000  Level Salt Lake Center
Sun 02:14:14 PM 38.7661 -114.6283 109° East 486 559 41,000  Level Salt Lake Center
Sun 02:15:16 PM 38.7131 -114.4314 109° East 486 559 41,000  Level Salt Lake Center
Sun 02:16:18 PM 38.6683 -114.2683 109° East 485 558 41,000  Level Salt Lake Center
Sun 02:17:20 PM 38.6244 -114.1044 109° East 485 558 41,000  Level Salt Lake Center
Sun 02:18:22 PM 38.5792 -113.9403 109° East 491 565 41,000  Level Salt Lake Center
Sun 02:19:24 PM 38.5336 -113.7767 110° East 489 563 41,000  Level Salt Lake Center
Sun 02:20:26 PM 38.4878 -113.6144 110° East 486 559 41,000  Level Salt Lake Center
Sun 02:21:28 PM 38.4425 -113.4544 110° East 481 554 41,000  Level Salt Lake Center
Sun 02:22:30 PM 38.3886 -113.2594 109° East 483 556 41,000  Level Salt Lake Center
Sun 02:24:00 PM 38.3362 -113.1169 115° Southeast  Level Estimated
Sun 02:31:00 PM 38.0892 -112.4546 115° Southeast  Level Estimated
Sun 02:32:00 PM 38.0536 -112.3604 116° Southeast  Level Estimated
Sun 02:33:00 PM 38.0214 -112.2753 116° Southeast  Level Estimated
Sun 02:34:00 PM 37.9892 -112.1904 116° Southeast  Level Estimated
Sun 02:35:00 PM 37.9568 -112.1055 116° Southeast  Level Estimated
Sun 02:36:00 PM 37.9244 -112.0207 116° Southeast  Level Estimated
Sun 02:37:00 PM 37.8920 -111.9359 116° Southeast  Level Estimated
Sun 02:38:00 PM 37.8595 -111.8513 116° Southeast  Level Estimated
Sun 02:39:00 PM 37.8269 -111.7667 116° Southeast  Level Estimated
Sun 02:40:00 PM 37.7943 -111.6822 116° Southeast  Level Estimated
Sun 02:41:00 PM 37.7616 -111.5977 116° Southeast  Level Estimated
Sun 02:42:00 PM 37.7289 -111.5133 116° Southeast  Level Estimated
Sun 02:43:00 PM 37.6960 -111.4290 116° Southeast  Level Estimated
Sun 02:44:00 PM 37.6632 -111.3448 116° Southeast  Level Estimated
Sun 02:45:00 PM 37.6302 -111.2607 116° Southeast  Level Estimated
Sun 02:46:00 PM 37.5973 -111.1766 116° Southeast  Level Estimated
Sun 02:47:00 PM 37.5642 -111.0926 116° Southeast  Level Estimated
Sun 02:48:00 PM 37.5311 -111.0087 116° Southeast  Level Estimated
Sun 02:49:00 PM 37.4979 -110.9249 116° Southeast  Level Estimated
Sun 02:50:00 PM 37.4647 -110.8411 117° Southeast  Level Estimated
Sun 02:51:00 PM 37.4314 -110.7574 117° Southeast  Level Estimated
Sun 02:52:00 PM 37.3981 -110.6738 117° Southeast  Level Estimated
Sun 02:53:00 PM 37.3647 -110.5902 117° Southeast  Level Estimated
Sun 02:54:00 PM 37.3312 -110.5068 117° Southeast  Level Estimated
Sun 02:55:00 PM 37.2977 -110.4233 117° Southeast  Level Estimated
Sun 02:56:00 PM 37.2641 -110.3400 117° Southeast  Level Estimated
Sun 02:57:00 PM 37.2305 -110.2568 117° Southeast  Level Estimated
Sun 02:58:00 PM 37.1968 -110.1736 117° Southeast  Level Estimated
Sun 02:59:00 PM 37.1630 -110.0905 117° Southeast  Level Estimated
Sun 03:00:00 PM 37.1292 -110.0075 117° Southeast  Level Estimated
Sun 03:01:00 PM 37.0953 -109.9245 117° Southeast  Level Estimated
Sun 03:02:00 PM 37.0614 -109.8416 117° Southeast  Level Estimated
Sun 03:03:00 PM 37.0274 -109.7588 117° Southeast  Level Estimated
Sun 03:04:00 PM 36.9934 -109.6761 117° Southeast  Level Estimated
Sun 03:05:00 PM 36.9593 -109.5935 117° Southeast  Level Estimated
Sun 03:06:00 PM 36.9251 -109.5109 117° Southeast  Level Estimated
Sun 03:07:00 PM 36.8909 -109.4284 117° Southeast  Level Estimated
Sun 03:08:00 PM 36.8567 -109.3459 117° Southeast  Level Estimated
Sun 03:09:00 PM 36.8257 -109.2716 117° Southeast  Level Estimated
Sun 03:10:00 PM 36.7947 -109.1973 118° Southeast  Level Estimated
Sun 03:11:00 PM 36.7636 -109.1231 118° Southeast  Level Estimated
Sun 03:12:00 PM 36.7324 -109.0489 118° Southeast  Level Estimated
Sun 03:13:00 PM 36.7013 -108.9748 118° Southeast  Level Estimated
Sun 03:14:00 PM 36.6701 -108.9007 118° Southeast  Level Estimated
Sun 03:15:00 PM 36.6388 -108.8267 118° Southeast  Level Estimated
Sun 03:16:00 PM 36.6075 -108.7528 118° Southeast  Level Estimated
Sun 03:17:00 PM 36.5761 -108.6789 118° Southeast  Level Estimated
Sun 03:18:00 PM 36.5448 -108.6051 118° Southeast  Level Estimated
Sun 03:19:00 PM 36.5133 -108.5314 118° Southeast  Level Estimated
Sun 03:20:00 PM 36.4818 -108.4577 118° Southeast  Level Estimated
Sun 03:21:00 PM 36.4503 -108.3841 118° Southeast  Level Estimated
Sun 03:22:00 PM 36.4187 -108.3105 118° Southeast  Level Estimated
Sun 03:23:00 PM 36.3871 -108.2370 118° Southeast  Level Estimated
Sun 03:24:00 PM 36.3554 -108.1635 118° Southeast  Level Estimated
Sun 03:25:00 PM 36.3237 -108.0901 118° Southeast  Level Estimated
Sun 03:26:00 PM 36.2920 -108.0168 118° Southeast  Level Estimated
Sun 03:27:00 PM 36.2602 -107.9435 118° Southeast  Level Estimated
Sun 03:28:00 PM 36.2283 -107.8703 118° Southeast  Level Estimated
Sun 03:29:00 PM 36.1964 -107.7972 118° Southeast  Level Estimated
Sun 03:30:00 PM 36.1645 -107.7241 118° Southeast  Level Estimated
Sun 03:31:00 PM 36.1325 -107.6511 118° Southeast  Level Estimated
Sun 03:32:00 PM 36.1005 -107.5781 118° Southeast  Level Estimated
Sun 03:33:00 PM 36.0684 -107.5052 119° Southeast  Level Estimated
Sun 03:34:00 PM 36.0363 -107.4323 119° Southeast  Level Estimated
Sun 03:35:00 PM 36.0041 -107.3595 119° Southeast  Level Estimated
Sun 03:36:00 PM 35.9719 -107.2868 119° Southeast  Level Estimated
Sun 03:37:00 PM 35.9397 -107.2141 119° Southeast  Level Estimated
Sun 03:38:00 PM 35.9074 -107.1415 119° Southeast  Level Estimated
Sun 03:39:00 PM 35.8750 -107.0690 119° Southeast  Level Estimated
Sun 03:40:00 PM 35.8427 -106.9965 119° Southeast  Level Estimated
Sun 03:41:00 PM 35.8102 -106.9240 119° Southeast  Level Estimated
Sun 03:42:00 PM 35.7778 -106.8516 119° Southeast  Level Estimated
Sun 03:43:00 PM 35.7453 -106.7793 119° Southeast  Level Estimated
Sun 03:44:00 PM 35.7127 -106.7071 119° Southeast  Level Estimated
Sun 03:45:00 PM 35.6801 -106.6349 119° Southeast  Level Estimated
Sun 03:46:00 PM 35.6475 -106.5627 119° Southeast  Level Estimated
Sun 03:47:00 PM 35.6148 -106.4906 119° Southeast  Level Estimated
Sun 03:48:00 PM 35.5821 -106.4186 119° Southeast  Level Estimated
Sun 03:49:00 PM 35.5493 -106.3467 119° Southeast  Level Estimated
Sun 03:50:00 PM 35.5165 -106.2748 119° Southeast  Level Estimated
Sun 03:51:00 PM 35.4837 -106.2029 119° Southeast  Level Estimated
Sun 03:52:00 PM 35.4508 -106.1311 119° Southeast  Level Estimated
Sun 03:53:00 PM 35.4179 -106.0594 119° Southeast  Level Estimated
Sun 03:54:00 PM 35.3849 -105.9877 119° Southeast  Level Estimated
Sun 03:55:00 PM 35.3518 -105.9161 119° Southeast  Level Estimated
Sun 03:56:00 PM 35.3188 -105.8446 120° Southeast  Level Estimated
Sun 03:57:00 PM 35.2857 -105.7731 120° Southeast  Level Estimated
Sun 03:58:00 PM 35.2525 -105.7016 120° Southeast  Level Estimated
Sun 03:59:00 PM 35.2193 -105.6302 120° Southeast  Level Estimated
Sun 04:00:00 PM 35.1861 -105.5589 120° Southeast  Level Estimated
Sun 04:01:00 PM 35.1529 -105.4877 120° Southeast  Level Estimated
Sun 04:02:00 PM 35.1195 -105.4165 120° Southeast  Level Estimated
Sun 04:03:00 PM 35.0862 -105.3453 120° Southeast  Level Estimated
Sun 04:04:00 PM 35.0528 -105.2742 120° Southeast  Level Estimated
Sun 04:05:00 PM 35.0193 -105.2032 120° Southeast  Level Estimated
Sun 04:06:00 PM 34.9859 -105.1322 120° Southeast  Level Estimated
Sun 04:07:00 PM 34.9523 -105.0613 120° Southeast  Level Estimated
Sun 04:08:00 PM 34.9188 -104.9905 120° Southeast  Level Estimated
Sun 04:09:00 PM 34.8852 -104.9197 120° Southeast  Level Estimated
Sun 04:10:00 PM 34.8515 -104.8489 120° Southeast  Level Estimated
Sun 04:11:00 PM 34.8179 -104.7783 120° Southeast  Level Estimated
Sun 04:12:00 PM 34.7841 -104.7076 120° Southeast  Level Estimated
Sun 04:13:00 PM 34.7504 -104.6371 120° Southeast  Level Estimated
Sun 04:14:00 PM 34.7165 -104.5666 120° Southeast  Level Estimated
Sun 04:15:00 PM 34.6827 -104.4961 120° Southeast  Level Estimated
Sun 04:16:00 PM 34.6488 -104.4257 120° Southeast  Level Estimated
Sun 04:17:00 PM 34.6149 -104.3554 120° Southeast  Level Estimated
Sun 04:18:00 PM 34.5809 -104.2851 120° Southeast  Level Estimated
Sun 04:19:00 PM 34.5469 -104.2149 120° Southeast  Level Estimated
Sun 04:20:00 PM 34.5129 -104.1447 120° Southeast  Level Estimated
Sun 04:21:00 PM 34.4788 -104.0746 121° Southeast  Level Estimated
Sun 04:22:00 PM 34.4446 -104.0046 121° Southeast  Level Estimated
Sun 04:23:00 PM 34.4105 -103.9346 121° Southeast  Level Estimated
Sun 04:24:00 PM 34.3763 -103.8646 121° Southeast  Level Estimated
Sun 04:25:00 PM 34.3420 -103.7948 121° Southeast  Level Estimated
Sun 04:26:00 PM 34.3077 -103.7250 121° Southeast  Level Estimated
Sun 04:27:00 PM 34.2734 -103.6552 121° Southeast  Level Estimated
Sun 04:28:00 PM 34.2390 -103.5855 121° Southeast  Level Estimated
Sun 04:29:00 PM 34.2046 -103.5158 121° Southeast  Level Estimated
Sun 04:30:00 PM 34.1702 -103.4463 121° Southeast  Level Estimated
Sun 04:31:00 PM 34.1357 -103.3767 121° Southeast  Level Estimated
Sun 04:32:00 PM 34.1011 -103.3072 121° Southeast  Level Estimated
Sun 04:33:00 PM 34.0666 -103.2378 121° Southeast  Level Estimated
Sun 04:34:00 PM 34.0320 -103.1685 121° Southeast  Level Estimated
Sun 04:35:00 PM 33.9973 -103.0992 121° Southeast  Level Estimated
Sun 04:36:00 PM 33.9627 -103.0299 121° Southeast  Level Estimated
Sun 04:37:00 PM 33.9279 -102.9607 121° Southeast  Level Estimated
Sun 04:38:00 PM 33.8932 -102.8916 121° Southeast  Level Estimated
Sun 04:39:00 PM 33.8584 -102.8225 121° Southeast  Level Estimated
Sun 04:40:00 PM 33.8236 -102.7535 121° Southeast  Level Estimated
Sun 04:41:00 PM 33.7887 -102.6845 121° Southeast  Level Estimated
Sun 04:42:00 PM 33.7538 -102.6156 121° Southeast  Level Estimated
Sun 04:43:00 PM 33.7188 -102.5467 121° Southeast  Level Estimated
Sun 04:44:00 PM 33.6838 -102.4779 121° Southeast  Level Estimated
Sun 04:45:00 PM 33.6488 -102.4092 121° Southeast  Level Estimated
Sun 04:46:00 PM 33.6137 -102.3405 121° Southeast  Level Estimated
Sun 04:47:00 PM 33.5786 -102.2719 122° Southeast  Level Estimated
Sun 04:48:00 PM 33.5435 -102.2033 122° Southeast  Level Estimated
Sun 04:49:00 PM 33.5083 -102.1348 122° Southeast  Level Estimated
Sun 04:50:00 PM 33.4731 -102.0663 122° Southeast  Level Estimated
Sun 04:51:00 PM 33.4379 -101.9979 122° Southeast  Level Estimated
Sun 04:52:00 PM 33.4026 -101.9295 122° Southeast  Level Estimated
Sun 04:53:00 PM 33.3672 -101.8612 122° Southeast  Level Estimated
Sun 04:54:00 PM 33.3319 -101.7930 122° Southeast  Level Estimated
Sun 04:55:00 PM 33.2965 -101.7248 122° Southeast  Level Estimated
Sun 04:56:00 PM 33.2610 -101.6567 122° Southeast  Level Estimated
Sun 04:57:00 PM 33.2255 -101.5886 122° Southeast  Level Estimated
Sun 04:58:00 PM 33.1900 -101.5206 122° Southeast  Level Estimated
Sun 04:59:00 PM 33.1545 -101.4526 122° Southeast  Level Estimated
Sun 05:00:00 PM 33.1189 -101.3847 122° Southeast  Level Estimated
Sun 05:01:00 PM 33.0833 -101.3168 122° Southeast  Level Estimated
Sun 05:02:00 PM 33.0476 -101.2490 122° Southeast  Level Estimated
Sun 05:03:00 PM 33.0119 -101.1813 122° Southeast  Level Estimated
Sun 05:04:00 PM 32.9762 -101.1136 122° Southeast  Level Estimated
Sun 05:05:00 PM 32.9404 -101.0460 122° Southeast  Level Estimated
Sun 05:06:00 PM 32.9046 -100.9784 122° Southeast  Level Estimated
Sun 05:07:00 PM 32.8688 -100.9108 122° Southeast  Level Estimated
Sun 05:08:00 PM 32.8329 -100.8434 122° Southeast  Level Estimated
Sun 05:09:00 PM 32.7970 -100.7759 122° Southeast  Level Estimated
Sun 05:10:00 PM 32.7610 -100.7086 122° Southeast  Level Estimated
Sun 05:11:00 PM 32.7250 -100.6413 122° Southeast  Level Estimated
Sun 05:12:00 PM 32.6890 -100.5740 122° Southeast  Level Estimated
Sun 05:13:00 PM 32.6529 -100.5068 122° Southeast  Level Estimated
Sun 05:14:00 PM 32.6168 -100.4397 123° Southeast  Level Estimated
Sun 05:15:00 PM 32.5807 -100.3726 123° Southeast  Level Estimated
Sun 05:16:00 PM 32.5445 -100.3055 123° Southeast  Level Estimated
Sun 05:17:00 PM 32.5083 -100.2386 123° Southeast  Level Estimated
Sun 05:18:00 PM 32.4721 -100.1716 123° Southeast  Level Estimated
Sun 05:19:00 PM 32.4358 -100.1048 123° Southeast  Level Estimated
Sun 05:20:00 PM 32.3995 -100.0379 123° Southeast  Level Estimated
Sun 05:21:00 PM 32.3632 -99.9712 123° Southeast  Level Estimated
Sun 05:22:00 PM 32.3268 -99.9044 123° Southeast  Level Estimated
Sun 05:23:00 PM 32.2904 -99.8378 123° Southeast  Level Estimated
Sun 05:24:00 PM 32.2539 -99.7712 123° Southeast  Level Estimated
Sun 05:25:00 PM 32.2175 -99.7046 123° Southeast  Level Estimated
Sun 05:26:00 PM 32.1809 -99.6381 123° Southeast  Level Estimated
Sun 05:27:00 PM 32.1444 -99.5717 123° Southeast  Level Estimated
Sun 05:28:00 PM 32.1078 -99.5053 123° Southeast  Level Estimated
Sun 05:29:00 PM 32.0712 -99.4389 123° Southeast  Level Estimated
Sun 05:30:00 PM 32.0345 -99.3727 123° Southeast  Level Estimated
Sun 05:31:00 PM 31.9978 -99.3064 123° Southeast  Level Estimated
Sun 05:32:00 PM 31.9611 -99.2402 123° Southeast  Level Estimated
Sun 05:33:00 PM 31.9243 -99.1741 123° Southeast  Level Estimated
Sun 05:34:00 PM 31.8875 -99.1080 123° Southeast  Level Estimated
Sun 05:35:00 PM 31.8507 -99.0420 123° Southeast  Level Estimated
Sun 05:36:00 PM 31.8139 -98.9760 123° Southeast  Level Estimated
Sun 05:37:00 PM 31.7770 -98.9101 123° Southeast  Level Estimated
Sun 05:38:00 PM 31.7400 -98.8442 123° Southeast  Level Estimated
Sun 05:39:00 PM 31.7031 -98.7784 123° Southeast  Level Estimated
Sun 05:40:00 PM 31.6660 -98.7127 123° Southeast  Level Estimated
Sun 05:41:00 PM 31.6290 -98.6470 123° Southeast  Level Estimated
Sun 05:42:00 PM 31.5919 -98.5813 124° Southeast  Level Estimated
Sun 05:43:00 PM 31.5548 -98.5157 124° Southeast  Level Estimated
Sun 05:44:00 PM 31.5177 -98.4501 124° Southeast  Level Estimated
Sun 05:45:00 PM 31.4806 -98.3847 124° Southeast  Level Estimated
Sun 05:46:00 PM 31.4433 -98.3192 124° Southeast  Level Estimated
Sun 05:47:00 PM 31.4061 -98.2538 124° Southeast  Level Estimated
Sun 05:48:00 PM 31.3689 -98.1885 124° Southeast  Level Estimated
Sun 05:49:00 PM 31.3316 -98.1232 124° Southeast  Level Estimated
Sun 05:50:00 PM 31.2942 -98.0579 124° Southeast  Level Estimated
Sun 05:51:00 PM 31.2568 -97.9927 124° Southeast  Level Estimated
Sun 05:52:00 PM 31.2194 -97.9276 124° Southeast  Level Estimated
Sun 05:53:00 PM 31.1820 -97.8625 124° Southeast  Level Estimated
Sun 05:54:00 PM 31.1446 -97.7975 124° Southeast  Level Estimated
Sun 05:55:00 PM 31.1071 -97.7325 124° Southeast  Level Estimated
Sun 05:56:00 PM 31.0695 -97.6676 124° Southeast  Level Estimated
Sun 05:57:00 PM 31.0320 -97.6027 124° Southeast  Level Estimated
Sun 05:58:00 PM 30.9944 -97.5379 124° Southeast  Level Estimated
Sun 05:59:00 PM 30.9568 -97.4731 124° Southeast  Level Estimated
Sun 06:00:00 PM 30.9191 -97.4083 124° Southeast  Level Estimated
Sun 06:01:00 PM 30.8814 -97.3437 124° Southeast  Level Estimated
Sun 06:02:00 PM 30.8437 -97.2791 124° Southeast  Level Estimated
Sun 06:03:00 PM 30.8059 -97.2145 124° Southeast  Level Estimated
Sun 06:04:00 PM 30.7681 -97.1500 124° Southeast  Level Estimated
Sun 06:05:00 PM 30.7303 -97.0855 124° Southeast  Level Estimated
Sun 06:06:00 PM 30.6925 -97.0211 124° Southeast  Level Estimated
Sun 06:07:00 PM 30.6546 -96.9567 124° Southeast  Level Estimated
Sun 06:08:00 PM 30.6167 -96.8924 124° Southeast  Level Estimated
Sun 06:09:00 PM 30.5787 -96.8281 124° Southeast  Level Estimated
Sun 06:10:00 PM 30.5407 -96.7639 124° Southeast  Level Estimated
Sun 06:11:00 PM 30.5027 -96.6997 124° Southeast  Level Estimated
Sun 06:12:00 PM 30.4647 -96.6356 125° Southeast  Level Estimated
Sun 06:13:00 PM 30.4266 -96.5715 125° Southeast  Level Estimated
Sun 06:14:00 PM 30.3885 -96.5075 125° Southeast  Level Estimated
Sun 06:15:00 PM 30.3504 -96.4435 125° Southeast  Level Estimated
Sun 06:16:00 PM 30.3122 -96.3796 125° Southeast  Level Estimated
Sun 06:17:00 PM 30.2740 -96.3158 125° Southeast  Level Estimated
Sun 06:18:00 PM 30.2358 -96.2519 125° Southeast  Level Estimated
Sun 06:19:00 PM 30.1975 -96.1882 125° Southeast  Level Estimated
Sun 06:20:00 PM 30.1592 -96.1244 125° Southeast  Level Estimated
Sun 06:21:00 PM 30.1209 -96.0608 125° Southeast  Level Estimated
Sun 06:22:00 PM 30.0826 -95.9971 125° Southeast  Level Estimated
Sun 06:23:00 PM 30.0442 -95.9336 125° Southeast  Level Estimated
Sun 06:24:00 PM 30.0058 -95.8701 125° Southeast  Level Estimated
Sun 06:25:00 PM 29.9673 -95.8066 125° Southeast  Level Estimated
Sun 06:26:00 PM 29.9289 -95.7432 125° Southeast  Level Estimated
Sun 06:27:00 PM 29.8904 -95.6798 125° Southeast  Level Estimated
Sun 06:28:00 PM 29.8518 -95.6164 125° Southeast  Level Estimated
Sun 06:29:00 PM 29.8133 -95.5532 125° Southeast  Level Estimated
Sun 06:30:00 PM 29.7747 -95.4899 125° Southeast  Level Estimated
Sun 06:31:00 PM 29.7360 -95.4268 125° Southeast  Level Estimated
Sun 06:32:00 PM 29.6974 -95.3636 125° Southeast  Level Estimated
Sun 06:33:00 PM 29.6587 -95.3006 125° Southeast  Level Estimated
Sun 06:34:00 PM 29.6454 -95.2789 125° Southeast  Level Estimated
Sun 06:35:00 PM 29.6454 -95.2789 146° Southeast  Level Estimated
Sun 06:36:00 PM 29.6454 -95.2789 146° Southeast  Level Estimated
Sun 06:37:00 PM 29.6454 -95.2789 146° Southeast  Level Estimated
Sun 06:38:00 PM 29.6454 -95.2789 146° Southeast  Level Estimated
Sun 06:39:00 PM 29.6454 -95.2789 146° Southeast  Level Estimated
Sun 06:40:00 PM 29.6454 -95.2789 146° Southeast  Level Estimated
Sun 06:41:00 PM 29.6454 -95.2789 146° Southeast  Level Estimated
Sun 06:42:00 PM 29.6454 -95.2789 146° Southeast  Level Estimated
Sun 06:43:00 PM 29.6454 -95.2789 146° Southeast  Level Estimated
Sun 06:44:00 PM 29.6454 -95.2789 146° Southeast  Level Estimated
Sun 06:45:00 PM 29.6454 -95.2789 146° Southeast  Level Estimated
Sun 06:46:00 PM 29.6454 -95.2789 146° Southeast  Level Estimated
Sun 06:47:00 PM 29.6454 -95.2789 146° Southeast  Level Estimated
Sun 06:48:00 PM 29.6454 -95.2789 146° Southeast  Level Estimated
Sun 06:49:00 PM 29.6454 -95.2789 146° Southeast  Level Estimated
Sun 06:50:00 PM 29.6454 -95.2789 146° Southeast  Level Estimated
Sun 06:51:00 PM 29.6454 -95.2789 146° Southeast  Level Estimated
Sun 06:52:00 PM 29.6454 -95.2789 146° Southeast  Level Estimated
Sun 06:53:00 PM 29.6454 -95.2789 146° Southeast  Level Estimated
Sun 06:54:00 PM 29.6454 -95.2789 146° Southeast  Level Estimated
Sun 06:55:00 PM 29.6454 -95.2789 146° Southeast  Level Estimated
Sun 06:56:00 PM 29.6454 -95.2789 146° Southeast  Level Estimated
Sun 06:57:00 PM 29.6454 -95.2789 146° Southeast  Level Estimated
Sun 06:58:00 PM 29.6454 -95.2789 146° Southeast  Level Estimated
Sun 06:59:00 PM 29.6454 -95.2789 146° Southeast  Level Estimated
Sun 07:00:00 PM 29.6454 -95.2789 146° Southeast  Level Estimated
Sun 07:01:00 PM 29.6454 -95.2789 146° Southeast  Level Estimated
Sun 07:02:00 PM 29.6454 -95.2789 146° Southeast  Level Estimated
Sun 07:03:00 PM 29.6454 -95.2789 146° Southeast  Level Estimated
Sun 07:04:00 PM 29.6454 -95.2789 146° Southeast  Level Estimated
Sun 07:05:00 PM 29.6454 -95.2789 146° Southeast  Level Estimated
Sun 07:06:00 PM 29.6454 -95.2789 146° Southeast  Level Estimated
Sun 07:07:00 PM 29.6454 -95.2789 146° Southeast  Level Estimated

Login

Don't have an account? Register now (free) for customized features, flight alerts, and more!